Time;durP1;ratioP1;P1;durP2;ratioP2;P2;SDS_P1;SDS_P2;PMS_P1;PMS_P2;Temp;Humidity;BMP_temperature;BMP_pressure;BME280_temperature;BME280_humidity;BME280_pressure;Samples;Min_cycle;Max_cycle;Signal;HPM_P1;HPM_P2
2021/12/11 00:02:03;;;;;;;;;4.80;4.80;;;;;-1.42;79.12;98681.53;5050438;28;8866;-78
2021/12/11 00:04:32;;;;;;;;;1.40;0.40;;;;;-1.44;78.63;98687.72;5051172;28;8863;-78
2021/12/11 00:07:02;;;;;;;;;4.80;4.80;;;;;-1.46;78.23;98697.41;5050802;28;8931;-78
2021/12/11 00:09:29;;;;;;;;;3.80;3.80;;;;;-1.48;79.09;98700.09;5047758;28;9167;-78
2021/12/11 00:11:58;;;;;;;;;3.60;3.00;;;;;-1.51;78.71;98702.84;5050178;28;8972;-78
2021/12/11 00:14:26;;;;;;;;;3.60;3.60;;;;;-1.50;79.17;98706.31;5049736;28;8874;-78
2021/12/11 00:16:54;;;;;;;;;2.60;0.80;;;;;-1.52;78.94;98711.59;5048780;28;9151;-78
2021/12/11 00:19:22;;;;;;;;;3.60;3.60;;;;;-1.53;79.08;98709.09;5049824;28;8845;-79
2021/12/11 00:21:52;;;;;;;;;5.20;3.60;;;;;-1.55;78.67;98721.34;5049916;28;8984;-78
2021/12/11 00:24:24;;;;;;;;;4.40;4.40;;;;;-1.57;78.93;98717.97;5049182;28;8834;-78
2021/12/11 00:26:52;;;;;;;;;3.80;3.80;;;;;-1.59;79.21;98730.28;5048659;28;9027;-78
2021/12/11 00:29:20;;;;;;;;;5.20;4.80;;;;;-1.61;78.56;98734.72;5049171;28;8871;-78
2021/12/11 00:31:48;;;;;;;;;0.00;0.00;;;;;-1.61;79.36;98743.38;5049121;28;8858;-78
2021/12/11 00:34:15;;;;;;;;;3.00;1.00;;;;;-1.60;79.23;98741.63;5049012;28;8887;-78
2021/12/11 00:36:43;;;;;;;;;3.60;3.60;;;;;-1.61;78.73;98753.00;5050267;28;9112;-78
2021/12/11 00:39:13;;;;;;;;;6.00;4.00;;;;;-1.63;79.14;98752.19;5048551;28;8976;-78
2021/12/11 00:41:41;;;;;;;;;1.40;1.00;;;;;-1.63;78.71;98754.81;5050438;28;8843;-78
2021/12/11 00:44:08;;;;;;;;;3.60;3.60;;;;;-1.64;78.71;98760.94;5049948;28;8889;-78
2021/12/11 00:46:36;;;;;;;;;4.00;4.00;;;;;-1.65;79.49;98767.94;5050734;28;8838;-78
2021/12/11 00:49:04;;;;;;;;;1.00;0.00;;;;;-1.66;79.16;98768.84;5049502;28;8866;-79
2021/12/11 00:51:32;;;;;;;;;3.80;3.00;;;;;-1.67;78.92;98779.38;5049802;28;8850;-79
2021/12/11 00:53:59;;;;;;;;;1.80;1.40;;;;;-1.69;79.05;98778.59;5050446;28;8842;-78
2021/12/11 00:56:27;;;;;;;;;2.20;1.00;;;;;-1.72;78.95;98792.66;5048864;28;9004;-78
2021/12/11 00:58:55;;;;;;;;;3.40;1.00;;;;;-1.74;79.09;98794.47;5049504;28;8858;-78
2021/12/11 01:01:26;;;;;;;;;1.80;1.80;;;;;-1.77;79.38;98799.84;5048483;28;8858;-78
2021/12/11 01:03:55;;;;;;;;;3.00;3.00;;;;;-1.77;78.81;98804.22;5049002;28;8850;-78
2021/12/11 01:06:22;;;;;;;;;3.00;3.00;;;;;-1.79;78.58;98803.44;5048891;28;8849;-78
2021/12/11 01:08:56;;;;;;;;;2.60;2.60;;;;;-1.80;79.30;98809.59;5047985;28;8899;-78
2021/12/11 01:11:24;;;;;;;;;1.00;0.80;;;;;-1.81;79.39;98813.13;5049411;28;8858;-78
2021/12/11 01:13:52;;;;;;;;;1.80;1.00;;;;;-1.80;79.08;98822.63;5049414;28;8846;-78
2021/12/11 01:16:20;;;;;;;;;3.20;3.20;;;;;-1.80;78.94;98828.69;5048998;28;9531;-79
2021/12/11 01:18:49;;;;;;;;;3.40;3.40;;;;;-1.78;78.95;98836.44;5048865;28;8850;-78
2021/12/11 01:24:11;;;;;;;;;1.40;1.00;;;;;-1.77;78.86;98845.94;5046243;28;9000;-78
2021/12/11 01:26:39;;;;;;;;;1.40;1.40;;;;;-1.77;78.66;98845.94;5049154;28;8945;-78
2021/12/11 01:29:07;;;;;;;;;3.40;3.40;;;;;-1.76;78.94;98855.47;5048725;28;8984;-78
2021/12/11 01:31:34;;;;;;;;;5.20;5.20;;;;;-1.75;78.29;98858.00;5048837;28;8831;-78
2021/12/11 01:34:02;;;;;;;;;5.80;5.60;;;;;-1.73;79.30;98863.16;5048792;28;8838;-78
2021/12/11 01:36:30;;;;;;;;;3.60;3.40;;;;;-1.74;78.81;98875.34;5049114;28;8864;-78
2021/12/11 01:38:58;;;;;;;;;6.60;4.40;;;;;-1.76;79.40;98877.19;5047232;28;9531;-78
2021/12/11 01:41:26;;;;;;;;;3.00;3.00;;;;;-1.78;78.81;98886.84;5046949;28;9597;-78
2021/12/11 01:43:53;;;;;;;;;3.20;2.20;;;;;-1.78;79.23;98894.69;5048698;28;9512;-78
2021/12/11 01:46:21;;;;;;;;;1.00;1.00;;;;;-1.77;79.09;98895.50;5048835;28;8842;-78
2021/12/11 01:48:49;;;;;;;;;1.80;1.80;;;;;-1.78;79.34;98901.63;5048114;28;8842;-78
2021/12/11 01:51:17;;;;;;;;;4.00;3.80;;;;;-1.78;79.33;98909.47;5049067;28;8862;-78
2021/12/11 01:53:44;;;;;;;;;3.00;1.00;;;;;-1.78;78.79;98912.06;5049448;28;8948;-78
2021/12/11 01:56:13;;;;;;;;;4.00;3.80;;;;;-1.78;79.35;98918.16;5051027;28;8858;-78
2021/12/11 01:58:41;;;;;;;;;3.00;3.00;;;;;-1.78;79.15;98918.16;5053752;28;8953;-78
2021/12/11 02:01:10;;;;;;;;;2.60;2.60;;;;;-1.77;79.30;98934.63;5052529;28;8834;-78
2021/12/11 02:03:38;;;;;;;;;0.20;0.20;;;;;-1.79;79.19;98941.69;5051871;28;9183;-78
2021/12/11 02:06:05;;;;;;;;;2.60;0.80;;;;;-1.80;79.24;98943.47;5053055;28;8843;-79
2021/12/11 02:08:33;;;;;;;;;3.60;2.60;;;;;-1.82;79.51;98954.88;5051414;28;8973;-78
2021/12/11 02:11:01;;;;;;;;;0.00;0.00;;;;;-1.84;79.22;98960.16;5052096;28;8868;-78
2021/12/11 02:13:37;;;;;;;;;4.40;4.00;;;;;-1.88;79.48;98957.75;5052650;28;8862;-78
2021/12/11 02:16:05;;;;;;;;;2.60;2.60;;;;;-1.90;79.52;98964.81;5052062;28;8854;-78
2021/12/11 02:18:35;;;;;;;;;5.00;5.00;;;;;-1.92;79.51;98966.63;5052099;28;8857;-78
2021/12/11 02:21:03;;;;;;;;;4.20;4.20;;;;;-1.93;79.35;98971.03;5055548;28;8888;-78
2021/12/11 02:23:31;;;;;;;;;2.60;2.60;;;;;-1.93;79.29;98977.97;5055972;28;8949;-78
2021/12/11 02:25:58;;;;;;;;;4.80;4.80;;;;;-1.95;79.25;98983.28;5055128;28;8842;-78
2021/12/11 02:28:26;;;;;;;;;8.40;7.00;;;;;-1.94;79.48;98984.13;5053370;28;8830;-78
2021/12/11 02:30:54;;;;;;;;;6.60;6.60;;;;;-1.93;79.23;98998.84;5053184;28;8864;-78
2021/12/11 02:33:22;;;;;;;;;6.80;6.60;;;;;-1.93;79.49;98998.84;5052831;28;8973;-78
2021/12/11 02:35:50;;;;;;;;;6.60;6.60;;;;;-1.92;79.54;98998.78;5052824;28;8860;-78
2021/12/11 02:38:18;;;;;;;;;3.80;3.40;;;;;-1.92;78.89;99013.56;5051883;28;8848;-78
2021/12/11 02:40:46;;;;;;;;;2.60;2.60;;;;;-1.93;79.25;99006.66;5053555;28;8846;-78
2021/12/11 02:43:14;;;;;;;;;2.20;2.20;;;;;-1.94;79.26;99012.81;5053092;28;9623;-79
2021/12/11 02:45:41;;;;;;;;;4.00;4.00;;;;;-1.97;79.41;99011.16;5052927;28;8876;-78
2021/12/11 02:48:09;;;;;;;;;5.20;5.20;;;;;-1.93;79.32;99014.50;5052129;28;8872;-78
2021/12/11 02:50:37;;;;;;;;;1.00;1.00;;;;;-1.90;79.33;99016.97;5053145;28;8858;-78
2021/12/11 02:53:06;;;;;;;;;2.20;2.20;;;;;-1.90;79.05;99023.03;5053512;28;8863;-78
2021/12/11 02:55:33;;;;;;;;;4.00;3.40;;;;;-1.90;79.46;99032.63;5052835;28;8834;-78
2021/12/11 02:58:01;;;;;;;;;3.00;2.20;;;;;-1.91;79.07;99038.75;5052266;28;8958;-78
2021/12/11 03:00:30;;;;;;;;;3.20;3.20;;;;;-1.95;79.04;99042.41;5052424;28;8850;-78
2021/12/11 03:03:02;;;;;;;;;6.40;6.40;;;;;-1.99;79.02;99044.31;5051128;28;9009;-78
2021/12/11 03:05:38;;;;;;;;;6.40;6.00;;;;;-2.00;79.36;99046.97;5052324;28;8932;-78
2021/12/11 03:08:06;;;;;;;;;3.00;3.00;;;;;-2.00;79.39;99046.97;5051663;28;8996;-78
2021/12/11 03:10:34;;;;;;;;;2.00;2.00;;;;;-2.02;79.30;99046.19;5051879;28;9286;-79
2021/12/11 03:13:02;;;;;;;;;6.00;4.80;;;;;-2.03;79.79;99049.72;5052525;28;8846;-78
2021/12/11 03:15:30;;;;;;;;;0.00;0.00;;;;;-2.04;79.20;99056.69;5052855;28;9304;-78
2021/12/11 03:17:58;;;;;;;;;3.00;3.00;;;;;-2.04;79.66;99061.06;5050824;28;8873;-78
2021/12/11 03:20:29;;;;;;;;;4.00;4.00;;;;;-2.05;79.09;99059.38;5051083;28;9008;-78
2021/12/11 03:22:57;;;;;;;;;3.80;3.80;;;;;-2.06;79.58;99062.91;5051719;28;9020;-78
2021/12/11 03:25:24;;;;;;;;;5.20;4.40;;;;;-2.03;79.14;99067.97;5050375;28;9463;-78
2021/12/11 03:27:52;;;;;;;;;4.80;4.40;;;;;-1.96;79.75;99074.63;5049956;28;9160;-78
2021/12/11 03:30:21;;;;;;;;;3.00;3.00;;;;;-1.90;79.04;99076.97;5050154;28;8850;-78
2021/12/11 03:32:49;;;;;;;;;7.00;3.40;;;;;-1.87;79.15;99079.44;5050707;28;8970;-78
2021/12/11 03:35:17;;;;;;;;;7.60;7.60;;;;;-1.78;78.66;99079.00;5050950;28;8858;-78
2021/12/11 03:37:45;;;;;;;;;4.00;4.00;;;;;-1.66;79.00;99086.31;5050066;28;8846;-78
2021/12/11 03:40:13;;;;;;;;;3.60;3.00;;;;;-1.52;78.58;99091.75;5048179;28;8853;-78
2021/12/11 03:42:41;;;;;;;;;4.80;4.80;;;;;-1.37;78.67;99094.50;5050725;28;8872;-78
2021/12/11 03:45:08;;;;;;;;;1.60;0.60;;;;;-1.27;78.04;99087.13;5050716;28;8888;-78
2021/12/11 03:47:36;;;;;;;;;4.80;4.80;;;;;-1.26;78.30;99099.25;5051674;28;8838;-78
2021/12/11 03:50:04;;;;;;;;;3.40;3.20;;;;;-1.28;78.10;99106.31;5048820;28;8858;-78
2021/12/11 03:52:32;;;;;;;;;4.00;4.00;;;;;-1.34;78.42;99101.34;5050450;28;8856;-79
2021/12/11 03:55:00;;;;;;;;;4.00;4.00;;;;;-1.40;78.90;99112.06;5050602;28;9497;-78
2021/12/11 03:57:28;;;;;;;;;6.80;6.00;;;;;-1.46;78.49;99104.53;5050199;28;9093;-78
2021/12/11 03:59:55;;;;;;;;;4.00;3.60;;;;;-1.50;78.38;99110.81;5048537;28;8847;-78
2021/12/11 04:02:24;;;;;;;;;5.60;4.80;;;;;-1.54;78.85;99117.06;5049023;28;8956;-78
2021/12/11 04:04:51;;;;;;;;;1.00;1.00;;;;;-1.61;78.74;99121.72;5049733;28;8834;-78
2021/12/11 04:07:19;;;;;;;;;3.20;3.20;;;;;-1.64;78.75;99127.09;5050702;28;8916;-78
2021/12/11 04:09:47;;;;;;;;;6.00;4.80;;;;;-1.70;79.00;99140.38;5049606;28;8847;-79
2021/12/11 04:12:15;;;;;;;;;1.40;1.40;;;;;-1.77;78.70;99143.31;5048365;28;8988;-78
2021/12/11 04:14:42;;;;;;;;;6.40;4.00;;;;;-1.82;79.26;99153.94;5049289;28;9252;-78
2021/12/11 04:17:10;;;;;;;;;6.60;4.00;;;;;-1.85;79.49;99155.84;5048878;28;9158;-78
2021/12/11 04:19:38;;;;;;;;;4.80;4.00;;;;;-1.90;79.53;99163.84;5048864;28;8846;-78
2021/12/11 04:22:07;;;;;;;;;3.00;3.00;;;;;-1.94;79.30;99171.88;5049277;28;8854;-78
2021/12/11 04:24:34;;;;;;;;;4.80;3.40;;;;;-1.98;79.67;99171.16;5049691;28;8862;-78
2021/12/11 04:27:02;;;;;;;;;5.40;5.20;;;;;-1.99;79.97;99186.91;5049184;28;8870;-78
2021/12/11 04:29:30;;;;;;;;;8.40;5.60;;;;;-2.00;79.41;99193.00;5049578;28;9484;-78
2021/12/11 04:32:00;;;;;;;;;6.80;5.60;;;;;-2.01;79.80;99186.09;5049711;28;9128;-78
2021/12/11 04:34:28;;;;;;;;;4.80;4.00;;;;;-1.99;79.65;99189.50;5049708;28;8989;-78
2021/12/11 04:36:58;;;;;;;;;4.00;3.80;;;;;-1.97;79.40;99185.06;5048122;28;9286;-78
2021/12/11 04:39:28;;;;;;;;;4.80;4.40;;;;;-2.00;79.54;99188.63;5049050;28;8854;-78
2021/12/11 04:42:01;;;;;;;;;6.60;6.00;;;;;-2.04;79.72;99191.44;5049457;28;8872;-79
2021/12/11 04:44:33;;;;;;;;;6.40;6.20;;;;;-2.08;79.37;99197.69;5049449;28;8854;-78
2021/12/11 04:47:01;;;;;;;;;0.00;0.00;;;;;-2.10;80.25;99207.31;5047499;28;8862;-78
2021/12/11 04:49:35;;;;;;;;;6.00;5.60;;;;;-2.11;79.63;99200.41;5048517;28;8866;-78
2021/12/11 04:52:11;;;;;;;;;4.00;3.40;;;;;-2.13;79.59;99208.28;5048437;28;8881;-78
2021/12/11 04:54:51;;;;;;;;;6.60;6.60;;;;;-2.15;80.02;99209.25;5046820;28;8842;-78
2021/12/11 04:57:54;;;;;;;;;6.80;5.20;;;;;-2.18;79.67;99206.78;5048712;28;8862;-78
2021/12/11 05:00:32;;;;;;;;;3.40;3.00;;;;;-2.12;80.01;99214.38;5047051;28;8976;-78
2021/12/11 05:03:26;;;;;;;;;4.00;4.00;;;;;-2.05;80.02;99221.03;5049181;28;9477;-79
2021/12/11 05:06:13;;;;;;;;;6.40;6.40;;;;;-1.93;79.58;99221.38;5048499;28;8860;-78
2021/12/11 05:11:36;;;;;;;;;7.40;7.40;;;;;-1.69;79.48;99230.78;5045771;28;9750;-78
2021/12/11 05:14:04;;;;;;;;;6.40;6.40;;;;;-1.57;79.14;99240.72;5048453;28;8939;-78
2021/12/11 05:16:32;;;;;;;;;7.40;7.40;;;;;-1.45;78.45;99250.63;5047291;28;8842;-78
2021/12/11 05:18:59;;;;;;;;;6.00;6.00;;;;;-1.44;78.73;99246.25;5046971;28;8854;-78
2021/12/11 05:21:27;;;;;;;;;4.00;4.00;;;;;-1.48;78.67;99255.13;5048242;28;8931;-78
2021/12/11 05:23:55;;;;;;;;;7.20;6.20;;;;;-1.54;78.68;99260.59;5048166;28;8839;-78
2021/12/11 05:26:23;;;;;;;;;2.60;1.40;;;;;-1.64;78.75;99265.38;5047361;28;8861;-78
2021/12/11 05:28:50;;;;;;;;;4.40;4.40;;;;;-1.71;78.82;99266.53;5047831;28;8989;-78
2021/12/11 05:31:18;;;;;;;;;6.00;6.00;;;;;-1.75;79.31;99267.56;5047813;28;9009;-78
2021/12/11 05:33:46;;;;;;;;;7.80;6.40;;;;;-1.77;79.47;99273.75;5047478;28;9594;-78
2021/12/11 05:36:14;;;;;;;;;9.40;7.00;;;;;-1.76;79.80;99283.28;5048246;28;8911;-77
2021/12/11 05:38:43;;;;;;;;;3.20;3.20;;;;;-1.74;79.37;99289.28;5047735;28;8870;-78
2021/12/11 05:41:11;;;;;;;;;3.40;3.40;;;;;-1.80;79.42;99292.13;5046958;28;8961;-78
2021/12/11 05:43:39;;;;;;;;;4.20;3.60;;;;;-1.86;79.17;99302.81;5046697;28;8980;-78
2021/12/11 05:46:07;;;;;;;;;6.20;5.60;;;;;-1.93;79.78;99309.19;5047677;28;8858;-78
2021/12/11 05:48:35;;;;;;;;;1.20;0.40;;;;;-1.99;79.53;99310.28;5047105;28;8854;-79
2021/12/11 05:51:03;;;;;;;;;9.60;6.80;;;;;-2.02;79.30;99314.78;5048440;28;8854;-78
2021/12/11 05:53:31;;;;;;;;;5.60;3.80;;;;;-2.03;79.69;99315.69;5046872;28;8981;-77
2021/12/11 05:56:00;;;;;;;;;3.80;3.40;;;;;-2.04;80.01;99316.59;5047854;28;8842;-78
2021/12/11 05:58:45;;;;;;;;;7.60;6.80;;;;;-2.04;79.85;99316.59;5046962;28;8943;-78
2021/12/11 06:01:13;;;;;;;;;3.20;3.20;;;;;-2.05;79.72;99327.94;5047463;28;8843;-78
2021/12/11 06:03:41;;;;;;;;;6.20;6.20;;;;;-2.06;80.16;99334.06;5044924;28;8912;-78
2021/12/11 06:06:08;;;;;;;;;6.20;6.00;;;;;-2.08;80.00;99343.69;5046873;28;9633;-78
2021/12/11 06:08:36;;;;;;;;;6.20;5.20;;;;;-2.12;79.62;99345.56;5045993;28;8874;-78
2021/12/11 06:11:05;;;;;;;;;5.60;5.60;;;;;-2.15;80.05;99353.50;5047051;28;8842;-78
2021/12/11 06:13:32;;;;;;;;;8.00;6.40;;;;;-2.17;79.85;99357.94;5048649;28;8851;-77
2021/12/11 06:16:00;;;;;;;;;7.80;7.80;;;;;-2.18;80.21;99360.59;5047812;28;8862;-78
2021/12/11 06:18:28;;;;;;;;;2.20;1.00;;;;;-2.18;80.75;99363.22;5047343;28;8838;-78
2021/12/11 06:20:56;;;;;;;;;4.00;4.00;;;;;-2.20;79.58;99365.03;5047007;28;8870;-77
2021/12/11 06:23:23;;;;;;;;;4.00;3.60;;;;;-2.21;79.69;99371.16;5047435;28;8838;-77
2021/12/11 06:25:51;;;;;;;;;4.40;3.60;;;;;-2.22;80.32;99374.66;5045361;28;8924;-78
2021/12/11 06:28:19;;;;;;;;;1.00;1.00;;;;;-2.24;79.83;99379.06;5047304;28;8850;-78
2021/12/11 06:30:47;;;;;;;;;7.20;6.60;;;;;-2.26;80.31;99383.50;5047190;28;9328;-77
2021/12/11 06:33:15;;;;;;;;;3.60;3.60;;;;;-2.27;80.18;99394.84;5046681;28;9520;-77
2021/12/11 06:35:42;;;;;;;;;8.00;7.00;;;;;-2.29;80.40;99405.31;5045757;28;8838;-78
2021/12/11 06:38:10;;;;;;;;;4.00;3.80;;;;;-2.30;80.14;99402.75;5046403;28;8854;-78
2021/12/11 06:40:38;;;;;;;;;6.20;4.80;;;;;-2.33;80.11;99406.34;5046087;28;8881;-78
2021/12/11 06:43:05;;;;;;;;;6.60;6.40;;;;;-2.32;79.58;99421.06;5048826;28;8850;-78
2021/12/11 06:45:33;;;;;;;;;7.00;6.40;;;;;-2.32;80.42;99417.59;5050097;28;8850;-78
2021/12/11 06:48:01;;;;;;;;;4.80;3.80;;;;;-2.34;80.30;99422.88;5051193;28;8842;-77
2021/12/11 06:50:29;;;;;;;;;7.00;6.40;;;;;-2.33;80.48;99432.41;5048137;28;9520;-78
2021/12/11 06:52:56;;;;;;;;;4.40;4.00;;;;;-2.32;80.24;99434.13;5049815;28;8841;-78
2021/12/11 06:55:24;;;;;;;;;4.00;4.00;;;;;-2.29;80.21;99440.97;5049344;28;8870;-78
2021/12/11 06:57:52;;;;;;;;;4.80;4.80;;;;;-2.22;79.72;99442.41;5048598;28;8862;-78
2021/12/11 07:00:19;;;;;;;;;7.40;6.20;;;;;-2.08;79.74;99442.78;5046895;28;8846;-78
2021/12/11 07:02:47;;;;;;;;;6.60;6.40;;;;;-1.93;79.25;99455.25;5049226;28;9001;-77
2021/12/11 07:05:15;;;;;;;;;5.20;5.20;;;;;-1.75;79.68;99454.56;5049017;28;9132;-78
2021/12/11 07:07:43;;;;;;;;;12.40;11.00;;;;;-1.64;79.19;99463.69;5047309;28;8842;-78
2021/12/11 07:10:11;;;;;;;;;10.00;9.60;;;;;-1.59;78.84;99463.50;5047570;28;8905;-77
2021/12/11 07:12:39;;;;;;;;;4.60;3.80;;;;;-1.62;78.83;99477.50;5049386;28;8847;-78
2021/12/11 07:15:07;;;;;;;;;4.80;4.80;;;;;-1.60;78.51;99473.06;5049137;28;8875;-77
2021/12/11 07:17:35;;;;;;;;;6.80;6.40;;;;;-1.52;79.14;99486.66;5048336;28;9527;-77
2021/12/11 07:20:03;;;;;;;;;5.80;5.20;;;;;-1.43;78.98;99488.09;5050136;28;9591;-78
2021/12/11 07:22:31;;;;;;;;;6.80;6.80;;;;;-1.38;78.38;99489.59;5049330;28;8835;-77
2021/12/11 07:24:58;;;;;;;;;8.40;8.40;;;;;-1.36;78.87;99486.94;5048053;28;8848;-78
2021/12/11 07:27:26;;;;;;;;;8.20;8.20;;;;;-1.30;78.91;99499.75;5048224;28;8850;-78
2021/12/11 07:29:54;;;;;;;;;14.00;10.60;;;;;-1.26;78.84;99502.19;5047634;28;9000;-77
2021/12/11 07:32:22;;;;;;;;;15.40;13.00;;;;;-1.20;78.73;99507.19;5048142;28;8866;-78
2021/12/11 07:34:50;;;;;;;;;11.60;11.60;;;;;-1.14;78.41;99511.28;5049070;28;8854;-78
2021/12/11 07:37:17;;;;;;;;;12.60;10.40;;;;;-1.14;78.82;99516.53;5048794;28;8866;-78
2021/12/11 07:39:45;;;;;;;;;14.60;11.60;;;;;-1.18;78.29;99526.22;5043757;28;8896;-78
2021/12/11 07:42:13;;;;;;;;;3.40;3.40;;;;;-1.20;78.82;99530.69;5046254;28;8856;-78
2021/12/11 07:44:42;;;;;;;;;9.00;8.20;;;;;-1.19;78.47;99539.34;5047213;28;8963;-77
2021/12/11 07:47:10;;;;;;;;;3.80;3.40;;;;;-1.17;78.67;99533.16;5047633;28;8855;-78
2021/12/11 07:49:38;;;;;;;;;10.80;9.80;;;;;-1.13;78.66;99539.13;5047346;28;8908;-77
2021/12/11 07:52:06;;;;;;;;;13.80;10.00;;;;;-1.06;78.82;99546.63;5047068;28;8861;-77
2021/12/11 07:54:34;;;;;;;;;7.00;6.20;;;;;-0.99;78.64;99542.03;5045455;28;8868;-78
2021/12/11 07:57:01;;;;;;;;;7.60;6.00;;;;;-0.96;78.38;99554.97;5045500;28;9124;-78
2021/12/11 07:59:29;;;;;;;;;12.20;11.20;;;;;-0.97;78.46;99556.75;5044267;28;9247;-77
2021/12/11 08:01:57;;;;;;;;;6.80;6.80;;;;;-0.98;78.21;99560.22;5046510;28;8940;-78
2021/12/11 08:04:25;;;;;;;;;4.60;4.60;;;;;-0.98;78.56;99575.91;5047933;28;8861;-78
2021/12/11 08:06:53;;;;;;;;;10.40;9.60;;;;;-1.01;78.90;99583.03;5042761;28;9000;-78
2021/12/11 08:09:21;;;;;;;;;8.60;8.60;;;;;-1.07;78.77;99588.50;5043391;28;8850;-77
2021/12/11 08:11:49;;;;;;;;;5.00;5.00;;;;;-1.13;78.68;99586.94;5040841;28;8916;-77
2021/12/11 08:14:16;;;;;;;;;4.80;4.00;;;;;-1.15;79.00;99588.78;5046552;28;9028;-78
2021/12/11 08:16:48;;;;;;;;;9.00;8.40;;;;;-1.15;78.98;99594.00;5048460;28;8858;-78
2021/12/11 08:19:15;;;;;;;;;15.40;13.00;;;;;-1.10;79.30;99604.28;5046850;28;8846;-77
2021/12/11 08:21:43;;;;;;;;;10.00;8.80;;;;;-1.00;78.92;99605.63;5045151;28;8889;-78
2021/12/11 08:24:11;;;;;;;;;9.80;9.20;;;;;-0.88;78.54;99605.16;5043751;28;8834;-78
2021/12/11 08:26:40;;;;;;;;;4.20;3.40;;;;;-0.77;78.55;99610.81;5048184;28;9594;-78
2021/12/11 08:29:08;;;;;;;;;4.00;4.00;;;;;-0.72;78.35;99606.25;5046078;28;9245;-78
2021/12/11 08:31:36;;;;;;;;;10.00;7.00;;;;;-0.70;78.34;99626.19;5045462;28;8885;-78
2021/12/11 08:34:03;;;;;;;;;6.00;6.00;;;;;-0.67;78.29;99627.81;5045973;28;9210;-77
2021/12/11 08:36:31;;;;;;;;;6.40;6.20;;;;;-0.68;78.58;99631.34;5046505;28;8865;-79
2021/12/11 08:38:59;;;;;;;;;9.60;9.60;;;;;-0.66;78.04;99629.53;5044638;28;9557;-78
2021/12/11 08:41:28;;;;;;;;;9.60;8.80;;;;;-0.62;78.64;99626.72;5043972;28;8860;-77
2021/12/11 08:44:00;;;;;;;;;4.80;4.80;;;;;-0.55;78.34;99629.97;5046657;28;9383;-78
2021/12/11 08:46:28;;;;;;;;;6.20;4.80;;;;;-0.49;78.53;99629.69;5043774;28;8929;-78
2021/12/11 08:48:56;;;;;;;;;6.60;6.00;;;;;-0.44;78.03;99638.22;5044747;28;9495;-78
2021/12/11 08:51:25;;;;;;;;;6.00;5.80;;;;;-0.39;77.88;99641.50;5042106;28;8877;-78
2021/12/11 08:53:53;;;;;;;;;6.60;6.60;;;;;-0.37;77.61;99640.53;5042534;28;8866;-78
2021/12/11 08:56:21;;;;;;;;;9.00;9.00;;;;;-0.34;78.13;99647.38;5042399;28;8858;-78
2021/12/11 08:58:49;;;;;;;;;10.00;10.00;;;;;-0.32;78.05;99649.03;5042708;28;8858;-78
2021/12/11 09:01:16;;;;;;;;;7.60;7.20;;;;;-0.29;77.98;99661.13;5040231;28;8854;-78
2021/12/11 09:03:44;;;;;;;;;8.60;8.60;;;;;-0.23;78.33;99666.94;5044133;28;8932;-78
2021/12/11 09:06:12;;;;;;;;;8.20;6.80;;;;;-0.17;77.92;99671.94;5040928;28;9618;-78
2021/12/11 09:08:40;;;;;;;;;12.00;7.20;;;;;-0.12;78.35;99670.81;5040193;28;8885;-78
2021/12/11 09:11:08;;;;;;;;;4.00;3.20;;;;;-0.03;77.87;99678.31;5041346;28;9544;-78
2021/12/11 09:13:36;;;;;;;;;3.40;3.40;;;;;0.07;77.57;99681.38;5037251;28;8858;-78
2021/12/11 09:16:03;;;;;;;;;11.80;10.60;;;;;0.18;76.74;99681.81;5039593;28;8835;-77
2021/12/11 09:18:31;;;;;;;;;8.60;8.20;;;;;0.30;77.26;99683.88;5040459;28;8870;-78
2021/12/11 09:20:59;;;;;;;;;10.20;7.40;;;;;0.39;77.33;99684.34;5042780;28;8965;-78
2021/12/11 09:23:27;;;;;;;;;11.40;11.40;;;;;0.49;76.73;99683.06;5040080;28;9209;-78
2021/12/11 09:25:55;;;;;;;;;9.40;9.40;;;;;0.60;77.04;99691.28;5037506;28;8854;-78
2021/12/11 09:28:23;;;;;;;;;10.00;9.40;;;;;0.71;76.33;99689.03;5041771;28;8854;-78
2021/12/11 09:30:50;;;;;;;;;5.20;4.80;;;;;0.84;76.08;99687.56;5040295;28;8862;-78
2021/12/11 09:33:18;;;;;;;;;5.40;5.40;;;;;1.01;76.31;99700.75;5039974;28;8870;-78
2021/12/11 09:35:46;;;;;;;;;4.00;4.00;;;;;1.17;75.69;99701.78;5040112;28;8903;-78
2021/12/11 09:38:14;;;;;;;;;12.20;11.20;;;;;1.38;75.98;99703.41;5040234;28;9489;-78
2021/12/11 09:40:41;;;;;;;;;7.40;7.00;;;;;1.57;75.41;99706.88;5040660;28;8880;-78
2021/12/11 09:43:09;;;;;;;;;10.20;9.00;;;;;1.75;75.12;99705.16;5041810;28;8866;-78
2021/12/11 09:45:37;;;;;;;;;12.20;11.60;;;;;1.93;74.66;99705.13;5042440;28;9272;-78
2021/12/11 09:48:05;;;;;;;;;6.00;6.00;;;;;2.18;74.37;99704.75;5042267;28;8850;-78
2021/12/11 09:50:35;;;;;;;;;12.00;6.00;;;;;2.53;74.07;99702.06;5043197;28;8874;-79
2021/12/11 09:53:03;;;;;;;;;10.80;9.40;;;;;2.91;73.63;99707.94;5042485;28;8872;-79
2021/12/11 09:55:31;;;;;;;;;11.00;9.60;;;;;3.27;72.42;99712.09;5040180;28;8858;-78
2021/12/11 09:58:02;;;;;;;;;10.20;7.80;;;;;3.38;72.30;99704.50;5041023;28;9659;-79
2021/12/11 10:00:29;;;;;;;;;14.60;12.00;;;;;3.31;73.07;99713.66;5038723;28;9278;-78
2021/12/11 10:02:57;;;;;;;;;11.60;9.60;;;;;3.22;73.53;99719.41;5038026;28;8854;-78
2021/12/11 10:05:37;;;;;;;;;12.00;10.00;;;;;3.19;73.28;99714.28;5040460;28;8896;-79
2021/12/11 10:08:26;;;;;;;;;10.20;8.40;;;;;3.21;74.23;99720.34;5039624;28;8963;-79
2021/12/11 10:10:54;;;;;;;;;9.60;9.60;;;;;3.28;73.30;99723.47;5039210;28;8923;-79
2021/12/11 10:13:22;;;;;;;;;15.00;10.00;;;;;3.35;74.07;99730.13;5041518;28;8870;-79
2021/12/11 10:15:49;;;;;;;;;12.40;11.20;;;;;3.42;73.37;99742.00;5044389;28;9285;-79
2021/12/11 10:18:17;;;;;;;;;9.00;6.60;;;;;3.49;73.51;99741.59;5047542;28;8853;-79
2021/12/11 10:20:47;;;;;;;;;10.20;5.20;;;;;3.57;73.44;99739.38;5049002;28;9496;-79
2021/12/11 10:23:15;;;;;;;;;12.00;9.20;;;;;3.67;72.94;99742.38;5044321;28;8892;-79
2021/12/11 10:25:43;;;;;;;;;13.60;10.00;;;;;3.73;73.49;99749.00;5044741;28;8985;-79
2021/12/11 10:28:10;;;;;;;;;17.00;12.80;;;;;3.76;73.16;99747.97;5045060;28;9196;-80
2021/12/11 10:30:39;;;;;;;;;9.80;8.20;;;;;3.75;73.68;99741.03;5046213;28;8858;-81
2021/12/11 10:33:07;;;;;;;;;11.20;9.60;;;;;3.77;73.74;99748.84;5044691;28;8991;-80
2021/12/11 10:35:35;;;;;;;;;11.00;10.20;;;;;3.77;74.11;99752.31;5044196;28;8977;-80
2021/12/11 10:38:05;;;;;;;;;12.40;10.60;;;;;3.81;74.08;99741.53;5039182;28;8854;-80
2021/12/11 10:40:32;;;;;;;;;9.40;8.20;;;;;3.86;74.00;99741.25;5041242;28;8876;-80
2021/12/11 10:43:00;;;;;;;;;10.00;8.40;;;;;3.91;73.83;99739.22;5041977;28;8874;-79
2021/12/11 10:45:28;;;;;;;;;17.40;13.40;;;;;3.97;73.47;99745.00;5040310;28;8858;-81
2021/12/11 10:47:56;;;;;;;;;11.20;8.40;;;;;4.07;73.89;99743.56;5040080;28;8862;-81
2021/12/11 10:50:24;;;;;;;;;17.60;15.80;;;;;4.20;73.27;99739.25;5004648;28;9188;-80
2021/12/11 10:52:51;;;;;;;;;10.80;9.20;;;;;4.29;72.97;99743.16;5019415;28;8855;-80
2021/12/11 10:55:19;;;;;;;;;14.80;12.40;;;;;4.42;73.28;99749.44;5042517;28;8866;-80
2021/12/11 10:57:47;;;;;;;;;8.20;7.20;;;;;4.55;72.96;99756.53;5044282;28;8850;-81
2021/12/11 11:00:15;;;;;;;;;16.80;14.20;;;;;4.70;72.87;99749.50;5043786;28;8884;-80
2021/12/11 11:02:43;;;;;;;;;13.00;11.80;;;;;4.73;72.40;99744.06;5043872;28;8850;-81
2021/12/11 11:05:11;;;;;;;;;11.60;9.60;;;;;4.73;72.66;99749.34;5042475;28;8850;-80
2021/12/11 11:07:39;;;;;;;;;10.80;9.00;;;;;4.69;72.81;99742.53;5042268;28;8880;-80
2021/12/11 11:10:07;;;;;;;;;10.80;9.20;;;;;4.65;72.60;99748.94;5038081;28;9625;-80
2021/12/11 11:12:34;;;;;;;;;14.80;11.40;;;;;4.66;73.06;99748.00;5040572;28;8854;-80
2021/12/11 11:15:02;;;;;;;;;15.00;13.00;;;;;4.73;72.70;99754.63;5039467;28;8846;-80
2021/12/11 11:17:30;;;;;;;;;11.40;10.00;;;;;4.76;72.90;99754.44;5039761;28;9016;-80
2021/12/11 11:19:58;;;;;;;;;13.00;12.00;;;;;4.73;72.88;99771.28;5041867;28;9151;-80
2021/12/11 11:22:26;;;;;;;;;14.60;11.00;;;;;4.70;73.69;99765.34;5042940;28;8858;-80
2021/12/11 11:24:53;;;;;;;;;9.60;9.60;;;;;4.65;73.70;99770.88;5042539;28;8881;-80
2021/12/11 11:27:21;;;;;;;;;16.80;11.60;;;;;4.66;73.79;99761.19;5040344;28;9551;-80
2021/12/11 11:29:49;;;;;;;;;9.40;8.20;;;;;4.67;73.42;99760.25;5044261;28;8880;-80
2021/12/11 11:32:16;;;;;;;;;11.20;10.00;;;;;4.67;73.44;99766.38;5040109;28;8854;-80
2021/12/11 11:34:45;;;;;;;;;12.20;10.40;;;;;4.69;73.32;99763.63;5038369;28;9564;-80
2021/12/11 11:37:12;;;;;;;;;9.40;6.00;;;;;4.71;74.23;99767.88;5035908;28;8850;-80
2021/12/11 11:39:40;;;;;;;;;13.80;12.40;;;;;4.75;73.83;99773.84;5039935;28;8885;-80
2021/12/11 11:42:08;;;;;;;;;9.80;9.80;;;;;4.75;74.03;99772.06;5036878;28;8862;-80
2021/12/11 11:44:35;;;;;;;;;10.60;8.80;;;;;4.75;73.58;99772.06;5040318;28;8880;-81
2021/12/11 11:47:03;;;;;;;;;11.80;10.80;;;;;4.73;74.00;99768.63;5041045;28;9216;-80
2021/12/11 11:49:31;;;;;;;;;9.80;9.00;;;;;4.70;73.58;99767.97;5041081;28;8882;-80
2021/12/11 11:51:59;;;;;;;;;12.60;10.80;;;;;4.67;73.91;99770.78;5040714;28;8854;-80
2021/12/11 11:54:27;;;;;;;;;14.20;13.00;;;;;4.63;74.24;99774.56;5038279;28;8979;-80